sensor_id;sensor_type;location;lat;lon;timestamp;pressure;altitude;pressure_sealevel;temperature;humidity
64610;BME280;51019;46.090;6.350;2024-03-23T00:54:49;61454.28;;;11.97;83.85
64610;BME280;51019;46.090;6.350;2024-03-23T00:57:16;61434.41;;;11.78;79.53
64610;BME280;51019;46.090;6.350;2024-03-23T00:59:42;61501.53;;;12.42;76.82
64610;BME280;51019;46.090;6.350;2024-03-23T01:02:09;61417.75;;;11.62;83.68
64610;BME280;51019;46.090;6.350;2024-03-23T01:04:36;61416.84;;;11.67;86.34
64610;BME280;51019;46.090;6.350;2024-03-23T01:07:04;61403.81;;;11.49;89.59
64610;BME280;51019;46.090;6.350;2024-03-23T01:09:29;61392.16;;;11.43;90.16
64610;BME280;51019;46.090;6.350;2024-03-23T01:11:59;61378.69;;;11.28;90.70
64610;BME280;51019;46.090;6.350;2024-03-23T01:14:25;61391.03;;;11.40;88.71
64610;BME280;51019;46.090;6.350;2024-03-23T01:16:52;61362.06;;;11.12;88.95
64610;BME280;51019;46.090;6.350;2024-03-23T01:19:18;61361.97;;;11.10;92.80
64610;BME280;51019;46.090;6.350;2024-03-23T01:21:45;61428.03;;;11.75;86.91
64610;BME280;51019;46.090;6.350;2024-03-23T01:24:11;61336.06;;;10.80;92.62
64610;BME280;51019;46.090;6.350;2024-03-23T01:26:38;61389.41;;;11.38;94.07
64610;BME280;51019;46.090;6.350;2024-03-23T01:29:05;61385.66;;;11.35;92.79
64610;BME280;51019;46.090;6.350;2024-03-23T01:31:32;61385.56;;;11.32;95.50
64610;BME280;51019;46.090;6.350;2024-03-23T01:33:58;61397.38;;;11.43;98.12
64610;BME280;51019;46.090;6.350;2024-03-23T01:36:26;61367.94;;;11.18;95.27
64610;BME280;51019;46.090;6.350;2024-03-23T01:38:51;61400.75;;;11.51;93.35
64610;BME280;51019;46.090;6.350;2024-03-23T01:41:18;61440.34;;;11.84;90.30
64610;BME280;51019;46.090;6.350;2024-03-23T01:43:45;61431.81;;;11.78;93.54
64610;BME280;51019;46.090;6.350;2024-03-23T01:46:14;61417.84;;;11.65;93.74
64610;BME280;51019;46.090;6.350;2024-03-23T01:48:40;61456.88;;;11.97;89.63
64610;BME280;51019;46.090;6.350;2024-03-23T01:51:07;61456.97;;;11.99;90.00
64610;BME280;51019;46.090;6.350;2024-03-23T01:53:33;61462.34;;;12.05;88.33
64610;BME280;51019;46.090;6.350;2024-03-23T01:56:00;61488.66;;;12.29;85.81
64610;BME280;51019;46.090;6.350;2024-03-23T01:58:28;61472.53;;;12.14;89.02
64610;BME280;51019;46.090;6.350;2024-03-23T02:00:55;61483.38;;;12.27;82.66
64610;BME280;51019;46.090;6.350;2024-03-23T02:03:25;61505.47;;;12.50;80.70
64610;BME280;51019;46.090;6.350;2024-03-23T02:05:53;61516.66;;;12.58;80.89
64610;BME280;51019;46.090;6.350;2024-03-23T02:08:20;61544.06;;;12.84;77.71
64610;BME280;51019;46.090;6.350;2024-03-23T02:10:48;61609.72;;;13.49;71.85
64610;BME280;51019;46.090;6.350;2024-03-23T02:13:14;61600.44;;;13.35;70.39
64610;BME280;51019;46.090;6.350;2024-03-23T02:15:41;61592.50;;;13.32;74.53
64610;BME280;51019;46.090;6.350;2024-03-23T02:18:08;61561.69;;;12.98;71.59
64610;BME280;51019;46.090;6.350;2024-03-23T02:20:37;61570.91;;;13.09;75.66
64610;BME280;51019;46.090;6.350;2024-03-23T02:23:05;61571.38;;;13.07;77.60
64610;BME280;51019;46.090;6.350;2024-03-23T02:25:32;61552.03;;;12.89;81.28
64610;BME280;51019;46.090;6.350;2024-03-23T02:27:58;61530.09;;;12.71;83.25
64610;BME280;51019;46.090;6.350;2024-03-23T02:30:26;61529.56;;;12.70;82.51
64610;BME280;51019;46.090;6.350;2024-03-23T02:32:52;61512.28;;;12.52;83.91
64610;BME280;51019;46.090;6.350;2024-03-23T02:35:19;61589.84;;;13.30;78.32
64610;BME280;51019;46.090;6.350;2024-03-23T02:37:46;61543.44;;;12.81;80.69
64610;BME280;51019;46.090;6.350;2024-03-23T02:40:15;61544.13;;;12.87;79.75
64610;BME280;51019;46.090;6.350;2024-03-23T02:42:41;61574.59;;;13.10;80.20
64610;BME280;51019;46.090;6.350;2024-03-23T02:45:08;61535.38;;;12.73;82.90
64610;BME280;51019;46.090;6.350;2024-03-23T02:47:34;61470.03;;;12.17;87.65
64610;BME280;51019;46.090;6.350;2024-03-23T02:50:02;61509.59;;;12.49;86.88
64610;BME280;51019;46.090;6.350;2024-03-23T02:52:28;61468.31;;;12.13;86.88
64610;BME280;51019;46.090;6.350;2024-03-23T02:54:54;61453.75;;;11.96;86.20
64610;BME280;51019;46.090;6.350;2024-03-23T02:57:23;61490.78;;;12.31;89.08
64610;BME280;51019;46.090;6.350;2024-03-23T02:59:50;61476.91;;;12.21;86.70
64610;BME280;51019;46.090;6.350;2024-03-23T03:02:16;61552.66;;;12.92;79.07
64610;BME280;51019;46.090;6.350;2024-03-23T03:04:42;61471.63;;;12.18;81.78
64610;BME280;51019;46.090;6.350;2024-03-23T03:07:08;61561.25;;;13.00;79.37
64610;BME280;51019;46.090;6.350;2024-03-23T03:09:35;61507.44;;;12.47;80.78
64610;BME280;51019;46.090;6.350;2024-03-23T03:12:01;61511.28;;;12.53;82.01
64610;BME280;51019;46.090;6.350;2024-03-23T03:14:30;61538.44;;;12.71;82.52
64610;BME280;51019;46.090;6.350;2024-03-23T03:16:56;61499.41;;;12.40;85.29
64610;BME280;51019;46.090;6.350;2024-03-23T03:19:23;61541.91;;;12.82;83.58
64610;BME280;51019;46.090;6.350;2024-03-23T03:21:49;61519.34;;;12.61;88.25
64610;BME280;51019;46.090;6.350;2024-03-23T03:24:16;61548.88;;;12.89;79.56
64610;BME280;51019;46.090;6.350;2024-03-23T03:26:42;61591.81;;;13.27;77.13
64610;BME280;51019;46.090;6.350;2024-03-23T03:29:09;61557.50;;;12.97;82.79
64610;BME280;51019;46.090;6.350;2024-03-23T03:31:46;61556.41;;;12.96;82.11
64610;BME280;51019;46.090;6.350;2024-03-23T03:34:15;61569.22;;;13.05;80.01
64610;BME280;51019;46.090;6.350;2024-03-23T03:36:41;61548.34;;;12.88;78.54
64610;BME280;51019;46.090;6.350;2024-03-23T03:39:08;61576.13;;;13.09;76.96
64610;BME280;51019;46.090;6.350;2024-03-23T03:41:34;61584.31;;;13.20;73.90
64610;BME280;51019;46.090;6.350;2024-03-23T03:44:01;61560.72;;;13.00;77.67
64610;BME280;51019;46.090;6.350;2024-03-23T03:46:27;61506.38;;;12.46;81.84
64610;BME280;51019;46.090;6.350;2024-03-23T03:48:56;61535.44;;;12.76;82.03
64610;BME280;51019;46.090;6.350;2024-03-23T03:51:22;61574.16;;;13.13;78.72
64610;BME280;51019;46.090;6.350;2024-03-23T03:53:49;61565.09;;;13.06;80.52
64610;BME280;51019;46.090;6.350;2024-03-23T03:56:15;61545.59;;;12.83;78.94
64610;BME280;51019;46.090;6.350;2024-03-23T03:58:42;61547.81;;;12.88;80.26
64610;BME280;51019;46.090;6.350;2024-03-23T04:01:08;61546.72;;;12.87;82.78
64610;BME280;51019;46.090;6.350;2024-03-23T04:03:35;61484.97;;;12.28;82.63
64610;BME280;51019;46.090;6.350;2024-03-23T04:06:03;61568.16;;;13.04;84.12
64610;BME280;51019;46.090;6.350;2024-03-23T04:08:30;61572.00;;;13.10;79.11
64610;BME280;51019;46.090;6.350;2024-03-23T04:10:56;61627.84;;;13.61;80.09
64610;BME280;51019;46.090;6.350;2024-03-23T04:13:23;61640.31;;;13.75;78.86
64610;BME280;51019;46.090;6.350;2024-03-23T04:15:48;61627.94;;;13.63;79.01
64610;BME280;51019;46.090;6.350;2024-03-23T04:18:15;61618.19;;;13.52;85.30
64610;BME280;51019;46.090;6.350;2024-03-23T04:20:41;61662.81;;;13.94;92.64
64610;BME280;51019;46.090;6.350;2024-03-23T04:23:10;61622.53;;;13.58;94.94
64610;BME280;51019;46.090;6.350;2024-03-23T04:25:36;61596.81;;;13.36;100.00
64610;BME280;51019;46.090;6.350;2024-03-23T04:28:03;61600.97;;;13.35;99.53
64610;BME280;51019;46.090;6.350;2024-03-23T04:30:30;61574.59;;;13.10;90.98
64610;BME280;51019;46.090;6.350;2024-03-23T04:32:57;61615.47;;;13.49;99.23
64610;BME280;51019;46.090;6.350;2024-03-23T04:35:24;61644.00;;;13.76;100.00
64610;BME280;51019;46.090;6.350;2024-03-23T04:37:51;61620.47;;;13.59;100.00
64610;BME280;51019;46.090;6.350;2024-03-23T04:40:20;61589.31;;;13.29;100.00
64610;BME280;51019;46.090;6.350;2024-03-23T04:42:48;61581.63;;;13.17;100.00
64610;BME280;51019;46.090;6.350;2024-03-23T04:45:15;61626.22;;;13.59;100.00
64610;BME280;51019;46.090;6.350;2024-03-23T04:47:42;61600.44;;;13.35;100.00
64610;BME280;51019;46.090;6.350;2024-03-23T04:50:12;61550.41;;;12.88;100.00
64610;BME280;51019;46.090;6.350;2024-03-23T04:52:40;61484.97;;;12.28;100.00
64610;BME280;51019;46.090;6.350;2024-03-23T04:55:06;61589.22;;;13.27;100.00
64610;BME280;51019;46.090;6.350;2024-03-23T04:57:34;61608.09;;;13.47;100.00
64610;BME280;51019;46.090;6.350;2024-03-23T05:00:00;61598.81;;;13.33;100.00
64610;BME280;51019;46.090;6.350;2024-03-23T05:02:30;61590.75;;;13.26;100.00
64610;BME280;51019;46.090;6.350;2024-03-23T05:04:56;61553.72;;;12.93;100.00
64610;BME280;51019;46.090;6.350;2024-03-23T05:07:23;61550.94;;;12.88;100.00
64610;BME280;51019;46.090;6.350;2024-03-23T05:09:49;61589.22;;;13.27;100.00
64610;BME280;51019;46.090;6.350;2024-03-23T05:12:16;61560.72;;;13.00;100.00
64610;BME280;51019;46.090;6.350;2024-03-23T05:14:43;61559.63;;;12.99;100.00
64610;BME280;51019;46.090;6.350;2024-03-23T05:17:10;61488.13;;;12.29;100.00
64610;BME280;51019;46.090;6.350;2024-03-23T05:19:36;61570.31;;;13.06;100.00
64610;BME280;51019;46.090;6.350;2024-03-23T05:22:04;61617.63;;;13.51;100.00
64610;BME280;51019;46.090;6.350;2024-03-23T05:24:30;61644.66;;;13.81;100.00
64610;BME280;51019;46.090;6.350;2024-03-23T05:26:57;61605.41;;;13.44;100.00
64610;BME280;51019;46.090;6.350;2024-03-23T05:29:24;61613.31;;;13.47;100.00
64610;BME280;51019;46.090;6.350;2024-03-23T05:31:53;61657.50;;;13.91;100.00
64610;BME280;51019;46.090;6.350;2024-03-23T05:34:21;61629.47;;;13.62;100.00
64610;BME280;51019;46.090;6.350;2024-03-23T05:36:48;61663.50;;;13.99;100.00
64610;BME280;51019;46.090;6.350;2024-03-23T05:39:16;61677.88;;;14.08;100.00
64610;BME280;51019;46.090;6.350;2024-03-23T05:41:44;61666.63;;;14.00;100.00
64610;BME280;51019;46.090;6.350;2024-03-23T05:44:10;61663.88;;;13.95;100.00
64610;BME280;51019;46.090;6.350;2024-03-23T05:46:37;61633.22;;;13.66;100.00
64610;BME280;51019;46.090;6.350;2024-03-23T05:49:05;61604.81;;;13.41;100.00
64610;BME280;51019;46.090;6.350;2024-03-23T05:51:32;61605.81;;;13.40;100.00
64610;BME280;51019;46.090;6.350;2024-03-23T05:53:58;61634.75;;;13.65;100.00
64610;BME280;51019;46.090;6.350;2024-03-23T05:56:26;61637.06;;;13.72;100.00
64610;BME280;51019;46.090;6.350;2024-03-23T05:58:52;61636.44;;;13.69;100.00
64610;BME280;51019;46.090;6.350;2024-03-23T06:01:19;61636.53;;;13.71;100.00
64610;BME280;51019;46.090;6.350;2024-03-23T06:03:45;61574.06;;;13.10;100.00
64610;BME280;51019;46.090;6.350;2024-03-23T06:06:14;61621.47;;;13.57;100.00
64610;BME280;51019;46.090;6.350;2024-03-23T06:08:40;61573.06;;;13.12;100.00
64610;BME280;51019;46.090;6.350;2024-03-23T06:11:07;61616.03;;;13.50;100.00
64610;BME280;51019;46.090;6.350;2024-03-23T06:13:33;61658.97;;;13.88;100.00
64610;BME280;51019;46.090;6.350;2024-03-23T06:16:00;61653.75;;;13.88;100.00
64610;BME280;51019;46.090;6.350;2024-03-23T06:18:26;61624.63;;;13.58;100.00
64610;BME280;51019;46.090;6.350;2024-03-23T06:20:54;61675.84;;;14.11;100.00
64610;BME280;51019;46.090;6.350;2024-03-23T06:23:21;61679.53;;;14.12;100.00
64610;BME280;51019;46.090;6.350;2024-03-23T06:25:48;61667.19;;;14.00;100.00
64610;BME280;51019;46.090;6.350;2024-03-23T06:28:14;61681.25;;;14.16;100.00
64610;BME280;51019;46.090;6.350;2024-03-23T06:30:41;61682.69;;;14.12;100.00
64610;BME280;51019;46.090;6.350;2024-03-23T06:33:07;61632.16;;;13.65;100.00
64610;BME280;51019;46.090;6.350;2024-03-23T06:35:34;61620.38;;;13.56;100.00
64610;BME280;51019;46.090;6.350;2024-03-23T06:38:00;61641.38;;;13.76;100.00
64610;BME280;51019;46.090;6.350;2024-03-23T06:40:29;61641.28;;;13.73;100.00
64610;BME280;51019;46.090;6.350;2024-03-23T06:43:08;61628.94;;;13.62;100.00
64610;BME280;51019;46.090;6.350;2024-03-23T06:45:36;61552.66;;;12.92;100.00
64610;BME280;51019;46.090;6.350;2024-03-23T06:48:03;61635.53;;;13.73;100.00
64610;BME280;51019;46.090;6.350;2024-03-23T06:50:36;61627.31;;;13.60;100.00
64610;BME280;51019;46.090;6.350;2024-03-23T06:53:04;61724.63;;;14.49;100.00
64610;BME280;51019;46.090;6.350;2024-03-23T06:55:32;61666.63;;;14.00;100.00
64610;BME280;51019;46.090;6.350;2024-03-23T06:57:59;61701.47;;;14.28;100.00
64610;BME280;51019;46.090;6.350;2024-03-23T07:00:26;61635.44;;;13.70;100.00
64610;BME280;51019;46.090;6.350;2024-03-23T07:02:53;61591.91;;;13.29;100.00
64610;BME280;51019;46.090;6.350;2024-03-23T07:05:19;61628.38;;;13.61;100.00
64610;BME280;51019;46.090;6.350;2024-03-23T07:07:48;61537.53;;;12.76;100.00
64610;BME280;51019;46.090;6.350;2024-03-23T07:10:14;61620.88;;;13.54;100.00
64610;BME280;51019;46.090;6.350;2024-03-23T07:12:44;61651.59;;;13.86;100.00
64610;BME280;51019;46.090;6.350;2024-03-23T07:15:10;61586.00;;;13.24;100.00
64610;BME280;51019;46.090;6.350;2024-03-23T07:17:39;61619.78;;;13.53;100.00
64610;BME280;51019;46.090;6.350;2024-03-23T07:20:06;61563.94;;;13.03;100.00
64610;BME280;51019;46.090;6.350;2024-03-23T07:22:36;61615.03;;;13.51;100.00
64610;BME280;51019;46.090;6.350;2024-03-23T07:25:06;61564.84;;;12.99;100.00
64610;BME280;51019;46.090;6.350;2024-03-23T07:27:35;61541.47;;;12.84;100.00
64610;BME280;51019;46.090;6.350;2024-03-23T07:30:05;61500.00;;;12.43;100.00
64610;BME280;51019;46.090;6.350;2024-03-23T07:32:32;61527.31;;;12.66;100.00
64610;BME280;51019;46.090;6.350;2024-03-23T07:34:58;61549.81;;;12.85;100.00
64610;BME280;51019;46.090;6.350;2024-03-23T07:37:26;61572.47;;;13.08;100.00
64610;BME280;51019;46.090;6.350;2024-03-23T07:39:52;61593.53;;;13.31;100.00
64610;BME280;51019;46.090;6.350;2024-03-23T07:42:19;61495.53;;;12.33;100.00
64610;BME280;51019;46.090;6.350;2024-03-23T07:44:45;61562.78;;;12.99;98.14
64610;BME280;51019;46.090;6.350;2024-03-23T07:47:15;61566.63;;;13.05;99.06
64610;BME280;51019;46.090;6.350;2024-03-23T07:49:41;61549.88;;;12.87;100.00
64610;BME280;51019;46.090;6.350;2024-03-23T07:52:08;61561.19;;;12.98;100.00
64610;BME280;51019;46.090;6.350;2024-03-23T07:54:34;61562.78;;;12.99;100.00
64610;BME280;51019;46.090;6.350;2024-03-23T07:57:01;61587.53;;;13.23;100.00
64610;BME280;51019;46.090;6.350;2024-03-23T07:59:29;61553.72;;;12.93;100.00
64610;BME280;51019;46.090;6.350;2024-03-23T08:01:59;61541.28;;;12.79;100.00
64610;BME280;51019;46.090;6.350;2024-03-23T08:04:27;61559.56;;;12.96;94.10
64610;BME280;51019;46.090;6.350;2024-03-23T08:06:56;61560.16;;;12.99;94.84
64610;BME280;51019;46.090;6.350;2024-03-23T08:09:22;61602.56;;;13.37;96.35
64610;BME280;51019;46.090;6.350;2024-03-23T08:11:50;61601.59;;;13.38;99.45
64610;BME280;51019;46.090;6.350;2024-03-23T08:14:16;61530.09;;;12.71;100.00
64610;BME280;51019;46.090;6.350;2024-03-23T08:16:46;61471.47;;;12.13;95.86
64610;BME280;51019;46.090;6.350;2024-03-23T08:19:15;61554.19;;;12.91;94.45
64610;BME280;51019;46.090;6.350;2024-03-23T08:21:47;61580.00;;;13.16;93.80
64610;BME280;51019;46.090;6.350;2024-03-23T08:24:13;61483.19;;;12.22;95.58
64610;BME280;51019;46.090;6.350;2024-03-23T08:26:42;61422.06;;;11.67;98.12
64610;BME280;51019;46.090;6.350;2024-03-23T08:29:19;61483.28;;;12.24;99.75
64610;BME280;51019;46.090;6.350;2024-03-23T08:31:49;61482.75;;;12.24;100.00
64610;BME280;51019;46.090;6.350;2024-03-23T08:34:14;61464.03;;;12.09;99.61
64610;BME280;51019;46.090;6.350;2024-03-23T08:36:43;61478.91;;;12.18;97.83
64610;BME280;51019;46.090;6.350;2024-03-23T08:39:13;61487.03;;;12.28;99.70
64610;BME280;51019;46.090;6.350;2024-03-23T08:41:43;61480.06;;;12.21;95.83
64610;BME280;51019;46.090;6.350;2024-03-23T08:44:11;61513.44;;;12.55;93.51
64610;BME280;51019;46.090;6.350;2024-03-23T08:46:38;61545.59;;;12.83;90.47
64610;BME280;51019;46.090;6.350;2024-03-23T08:49:05;61506.28;;;12.44;88.47
64610;BME280;51019;46.090;6.350;2024-03-23T08:51:32;61478.44;;;12.20;94.27
64610;BME280;51019;46.090;6.350;2024-03-23T08:53:58;61419.00;;;11.69;81.33
64610;BME280;51019;46.090;6.350;2024-03-23T08:56:27;61436.03;;;11.80;80.51
64610;BME280;51019;46.090;6.350;2024-03-23T08:58:53;61481.13;;;12.22;80.88
64610;BME280;51019;46.090;6.350;2024-03-23T09:01:22;61511.22;;;12.51;83.82
64610;BME280;51019;46.090;6.350;2024-03-23T09:03:49;61380.66;;;11.25;90.15
64610;BME280;51019;46.090;6.350;2024-03-23T09:06:16;61422.06;;;11.67;93.73
64610;BME280;51019;46.090;6.350;2024-03-23T09:08:42;61394.06;;;11.38;93.28
64610;BME280;51019;46.090;6.350;2024-03-23T09:11:11;61421.06;;;11.68;93.74
64610;BME280;51019;46.090;6.350;2024-03-23T09:13:39;61426.34;;;11.71;90.27
64610;BME280;51019;46.090;6.350;2024-03-23T09:16:07;61421.59;;;11.69;93.22
64610;BME280;51019;46.090;6.350;2024-03-23T09:18:36;61456.44;;;11.99;94.16
64610;BME280;51019;46.090;6.350;2024-03-23T09:21:03;61457.06;;;12.02;92.82
64610;BME280;51019;46.090;6.350;2024-03-23T09:23:30;61431.81;;;11.78;88.18
64610;BME280;51019;46.090;6.350;2024-03-23T09:25:57;61479.50;;;12.21;88.41
64610;BME280;51019;46.090;6.350;2024-03-23T09:28:22;61513.97;;;12.56;85.38
64610;BME280;51019;46.090;6.350;2024-03-23T09:30:51;61552.03;;;12.89;84.95
64610;BME280;51019;46.090;6.350;2024-03-23T09:33:17;61689.25;;;14.21;75.15
64610;BME280;51019;46.090;6.350;2024-03-23T09:35:45;61608.41;;;13.40;71.78
64610;BME280;51019;46.090;6.350;2024-03-23T09:38:11;61778.50;;;15.03;66.31
64610;BME280;51019;46.090;6.350;2024-03-23T09:40:40;61692.91;;;14.22;67.00
64610;BME280;51019;46.090;6.350;2024-03-23T09:43:09;61562.94;;;13.04;70.96
64610;BME280;51019;46.090;6.350;2024-03-23T09:45:39;61617.78;;;13.56;71.29
64610;BME280;51019;46.090;6.350;2024-03-23T09:48:09;61583.16;;;13.16;76.31
64610;BME280;51019;46.090;6.350;2024-03-23T09:50:37;61733.84;;;14.61;68.25
64610;BME280;51019;46.090;6.350;2024-03-23T09:53:03;61821.69;;;15.46;66.69
64610;BME280;51019;46.090;6.350;2024-03-23T09:55:30;61876.72;;;16.00;60.54
64610;BME280;51019;46.090;6.350;2024-03-23T09:57:56;61655.34;;;13.89;71.17
64610;BME280;51019;46.090;6.350;2024-03-23T10:00:24;61868.56;;;15.90;64.16
64610;BME280;51019;46.090;6.350;2024-03-23T10:02:50;61946.66;;;16.61;60.33
64610;BME280;51019;46.090;6.350;2024-03-23T10:05:22;61660.66;;;13.92;67.13
64610;BME280;51019;46.090;6.350;2024-03-23T10:07:49;61856.09;;;15.76;59.74
64610;BME280;51019;46.090;6.350;2024-03-23T10:10:17;61914.94;;;16.33;59.00
64610;BME280;51019;46.090;6.350;2024-03-23T10:12:45;61752.75;;;14.81;58.62
64610;BME280;51019;46.090;6.350;2024-03-23T10:15:18;61757.59;;;14.85;59.41
64610;BME280;51019;46.090;6.350;2024-03-23T10:17:45;61680.09;;;14.12;58.57
64610;BME280;51019;46.090;6.350;2024-03-23T10:20:12;61780.84;;;15.10;57.32
64610;BME280;51019;46.090;6.350;2024-03-23T10:22:40;61786.06;;;15.10;57.89
64610;BME280;51019;46.090;6.350;2024-03-23T10:25:09;61910.59;;;16.29;53.49
64610;BME280;51019;46.090;6.350;2024-03-23T10:27:35;61760.22;;;14.85;51.34
64610;BME280;51019;46.090;6.350;2024-03-23T10:30:12;61760.84;;;14.88;54.34
64610;BME280;51019;46.090;6.350;2024-03-23T10:32:40;61688.63;;;14.18;57.85
64610;BME280;51019;46.090;6.350;2024-03-23T10:35:17;61692.53;;;14.27;56.86
64610;BME280;51019;46.090;6.350;2024-03-23T10:37:46;61690.31;;;14.22;54.22
64610;BME280;51019;46.090;6.350;2024-03-23T10:40:15;61669.25;;;14.00;54.17
64610;BME280;51019;46.090;6.350;2024-03-23T10:42:41;61699.47;;;14.31;52.72
64610;BME280;51019;46.090;6.350;2024-03-23T10:45:09;61699.47;;;14.31;51.77
64610;BME280;51019;46.090;6.350;2024-03-23T10:47:36;61757.53;;;14.83;51.38
64610;BME280;51019;46.090;6.350;2024-03-23T10:50:04;61753.22;;;14.79;50.78
64610;BME280;51019;46.090;6.350;2024-03-23T10:52:31;61692.41;;;14.22;55.41
64610;BME280;51019;46.090;6.350;2024-03-23T10:55:01;61673.56;;;14.04;52.58
64610;BME280;51019;46.090;6.350;2024-03-23T10:57:36;61659.13;;;13.93;51.87
64610;BME280;51019;46.090;6.350;2024-03-23T11:00:05;61673.03;;;14.03;49.80
64610;BME280;51019;46.090;6.350;2024-03-23T11:02:33;61902.53;;;16.22;45.57
64610;BME280;51019;46.090;6.350;2024-03-23T11:04:59;61978.56;;;16.93;46.26
64610;BME280;51019;46.090;6.350;2024-03-23T11:07:29;61837.84;;;15.61;49.89
64610;BME280;51019;46.090;6.350;2024-03-23T11:09:57;61720.47;;;14.50;51.23
64610;BME280;51019;46.090;6.350;2024-03-23T11:12:30;61661.25;;;13.95;50.60
64610;BME280;51019;46.090;6.350;2024-03-23T11:15:01;61633.75;;;13.66;52.03
64610;BME280;51019;46.090;6.350;2024-03-23T11:17:29;61733.31;;;14.60;49.56
64610;BME280;51019;46.090;6.350;2024-03-23T11:19:56;61743.16;;;14.74;49.03
64610;BME280;51019;46.090;6.350;2024-03-23T11:22:42;61697.84;;;14.29;49.35
64610;BME280;51019;46.090;6.350;2024-03-23T11:25:19;61656.91;;;13.88;52.16
64610;BME280;51019;46.090;6.350;2024-03-23T11:27:50;61691.84;;;14.21;50.92
64610;BME280;51019;46.090;6.350;2024-03-23T11:30:17;61712.31;;;14.40;49.21
64610;BME280;51019;46.090;6.350;2024-03-23T11:32:46;61821.75;;;15.48;48.13
64610;BME280;51019;46.090;6.350;2024-03-23T11:35:26;62016.94;;;17.32;42.77
64610;BME280;51019;46.090;6.350;2024-03-23T11:38:09;62120.47;;;18.24;41.88
64610;BME280;51019;46.090;6.350;2024-03-23T11:40:36;62068.63;;;17.75;41.34
64610;BME280;51019;46.090;6.350;2024-03-23T11:43:07;62003.31;;;17.14;41.81
64610;BME280;51019;46.090;6.350;2024-03-23T11:45:36;62088.66;;;17.97;40.43
64610;BME280;51019;46.090;6.350;2024-03-23T11:48:09;62081.66;;;17.90;42.19
64610;BME280;51019;46.090;6.350;2024-03-23T11:50:40;62214.00;;;19.14;40.33
64610;BME280;51019;46.090;6.350;2024-03-23T11:53:09;62196.25;;;19.00;39.88
64610;BME280;51019;46.090;6.350;2024-03-23T11:55:48;62193.47;;;18.95;38.21
64610;BME280;51019;46.090;6.350;2024-03-23T11:58:19;62283.22;;;19.79;36.78
64610;BME280;51019;46.090;6.350;2024-03-23T12:00:52;62051.41;;;17.62;37.82
64610;BME280;51019;46.090;6.350;2024-03-23T12:03:19;62050.94;;;17.64;37.70
64610;BME280;51019;46.090;6.350;2024-03-23T12:05:50;62052.50;;;17.63;41.04
64610;BME280;51019;46.090;6.350;2024-03-23T12:08:20;62289.78;;;19.88;37.79
64610;BME280;51019;46.090;6.350;2024-03-23T12:10:48;62289.19;;;19.85;38.67
64610;BME280;51019;46.090;6.350;2024-03-23T12:13:21;61914.38;;;16.33;41.22
64610;BME280;51019;46.090;6.350;2024-03-23T12:15:50;61906.22;;;16.23;41.68
64610;BME280;51019;46.090;6.350;2024-03-23T12:18:17;62010.41;;;17.23;39.91
64610;BME280;51019;46.090;6.350;2024-03-23T12:20:43;62082.28;;;17.93;39.86
64610;BME280;51019;46.090;6.350;2024-03-23T12:23:12;62128.69;;;18.37;39.24
64610;BME280;51019;46.090;6.350;2024-03-23T12:25:38;62143.22;;;18.48;38.93
64610;BME280;51019;46.090;6.350;2024-03-23T12:28:06;62181.06;;;18.83;37.67
64610;BME280;51019;46.090;6.350;2024-03-23T12:30:38;62154.03;;;18.58;39.30
64610;BME280;51019;46.090;6.350;2024-03-23T12:33:08;62092.91;;;17.98;39.05
64610;BME280;51019;46.090;6.350;2024-03-23T12:35:34;62144.34;;;18.51;37.39
64610;BME280;51019;46.090;6.350;2024-03-23T12:38:38;62039.53;;;17.51;39.45
64610;BME280;51019;46.090;6.350;2024-03-23T12:41:23;62103.72;;;18.08;37.57
64610;BME280;51019;46.090;6.350;2024-03-23T12:43:50;62249.22;;;19.50;37.44
64610;BME280;51019;46.090;6.350;2024-03-23T12:46:26;62166.47;;;18.70;35.93
64610;BME280;51019;46.090;6.350;2024-03-23T12:48:54;62188.06;;;18.90;34.44
64610;BME280;51019;46.090;6.350;2024-03-23T12:51:20;62250.84;;;19.51;36.05
64610;BME280;51019;46.090;6.350;2024-03-23T12:53:49;62277.88;;;19.77;34.85
64610;BME280;51019;46.090;6.350;2024-03-23T12:56:17;62099.53;;;18.09;35.80
64610;BME280;51019;46.090;6.350;2024-03-23T12:58:44;61983.97;;;16.98;39.36
64610;BME280;51019;46.090;6.350;2024-03-23T13:01:10;62017.41;;;17.30;37.95
64610;BME280;51019;46.090;6.350;2024-03-23T13:03:46;61939.72;;;16.57;39.16
64610;BME280;51019;46.090;6.350;2024-03-23T13:06:15;61820.13;;;15.47;41.24
64610;BME280;51019;46.090;6.350;2024-03-23T13:08:52;61791.13;;;15.22;42.22
64610;BME280;51019;46.090;6.350;2024-03-23T13:11:20;61838.31;;;15.59;39.41
64610;BME280;51019;46.090;6.350;2024-03-23T13:13:48;61920.84;;;16.39;38.38
64610;BME280;51019;46.090;6.350;2024-03-23T13:16:15;61938.66;;;16.56;40.14
64610;BME280;51019;46.090;6.350;2024-03-23T13:18:44;61965.56;;;16.79;36.84
64610;BME280;51019;46.090;6.350;2024-03-23T13:21:10;62057.91;;;17.68;37.96
64610;BME280;51019;46.090;6.350;2024-03-23T13:23:39;61782.38;;;15.09;37.98
64610;BME280;51019;46.090;6.350;2024-03-23T13:26:07;61889.59;;;16.10;37.52
64610;BME280;51019;46.090;6.350;2024-03-23T13:28:36;61949.53;;;16.68;35.29
64610;BME280;51019;46.090;6.350;2024-03-23T13:31:03;61972.09;;;16.87;37.42
64610;BME280;51019;46.090;6.350;2024-03-23T13:33:38;61875.03;;;15.96;36.08
64610;BME280;51019;46.090;6.350;2024-03-23T13:36:08;61983.50;;;17.00;35.84
64610;BME280;51019;46.090;6.350;2024-03-23T13:38:35;61831.41;;;15.55;35.96
64610;BME280;51019;46.090;6.350;2024-03-23T13:41:01;61960.84;;;16.79;36.76
64610;BME280;51019;46.090;6.350;2024-03-23T13:43:29;61876.66;;;15.97;36.67
64610;BME280;51019;46.090;6.350;2024-03-23T13:45:57;61878.28;;;15.99;36.63
64610;BME280;51019;46.090;6.350;2024-03-23T13:48:25;61723.69;;;14.53;37.40
64610;BME280;51019;46.090;6.350;2024-03-23T13:51:01;61897.66;;;16.17;37.89
64610;BME280;51019;46.090;6.350;2024-03-23T13:53:34;61831.41;;;15.55;38.46
64610;BME280;51019;46.090;6.350;2024-03-23T13:56:00;61829.69;;;15.51;38.50